sensor_id;sensor_type;location;lat;lon;timestamp;pressure;altitude;pressure_sealevel;temperature;humidity
16793;BME280;8513;42.662;23.350;2023-11-22T00:01:11;94182.88;;;7.90;68.80
16793;BME280;8513;42.662;23.350;2023-11-22T00:03:36;94200.81;;;8.11;68.48
16793;BME280;8513;42.662;23.350;2023-11-22T00:06:02;94205.75;;;8.23;68.00
16793;BME280;8513;42.662;23.350;2023-11-22T00:08:27;94186.63;;;8.22;67.66
16793;BME280;8513;42.662;23.350;2023-11-22T00:10:54;94197.75;;;8.24;67.47
16793;BME280;8513;42.662;23.350;2023-11-22T00:13:20;94165.66;;;8.22;67.79
16793;BME280;8513;42.662;23.350;2023-11-22T00:15:45;94182.28;;;8.39;67.17
16793;BME280;8513;42.662;23.350;2023-11-22T00:18:10;94180.44;;;8.31;67.65
16793;BME280;8513;42.662;23.350;2023-11-22T00:20:36;94179.84;;;8.46;67.34
16793;BME280;8513;42.662;23.350;2023-11-22T00:23:02;94180.53;;;8.48;67.27
16793;BME280;8513;42.662;23.350;2023-11-22T00:25:28;94181.38;;;8.22;68.10
16793;BME280;8513;42.662;23.350;2023-11-22T00:27:54;94173.22;;;8.33;67.92
16793;BME280;8513;42.662;23.350;2023-11-22T00:30:20;94174.28;;;8.41;67.12
16793;BME280;8513;42.662;23.350;2023-11-22T00:32:46;94182.47;;;8.46;66.97
16793;BME280;8513;42.662;23.350;2023-11-22T00:35:11;94175.28;;;8.48;66.97
16793;BME280;8513;42.662;23.350;2023-11-22T00:37:37;94165.28;;;8.43;67.14
16793;BME280;8513;42.662;23.350;2023-11-22T00:40:03;94192.66;;;8.23;67.87
16793;BME280;8513;42.662;23.350;2023-11-22T00:42:38;94170.38;;;7.76;69.60
16793;BME280;8513;42.662;23.350;2023-11-22T00:45:06;94207.06;;;7.84;68.84
16793;BME280;8513;42.662;23.350;2023-11-22T00:47:32;94183.00;;;7.81;68.95
16793;BME280;8513;42.662;23.350;2023-11-22T00:49:58;94190.03;;;7.88;68.68
16793;BME280;8513;42.662;23.350;2023-11-22T00:52:24;94180.06;;;7.84;68.77
16793;BME280;8513;42.662;23.350;2023-11-22T00:54:49;94181.72;;;7.93;68.64
16793;BME280;8513;42.662;23.350;2023-11-22T00:57:15;94183.44;;;8.02;68.28
16793;BME280;8513;42.662;23.350;2023-11-22T00:59:40;94161.97;;;7.99;68.52
16793;BME280;8513;42.662;23.350;2023-11-22T01:02:06;94168.25;;;8.14;68.15
16793;BME280;8513;42.662;23.350;2023-11-22T01:04:34;94170.53;;;8.17;67.91
16793;BME280;8513;42.662;23.350;2023-11-22T01:07:01;94171.72;;;8.23;68.14
16793;BME280;8513;42.662;23.350;2023-11-22T01:09:26;94179.59;;;8.31;67.45
16793;BME280;8513;42.662;23.350;2023-11-22T01:11:54;94164.72;;;8.31;67.69
16793;BME280;8513;42.662;23.350;2023-11-22T01:14:19;94164.56;;;8.33;67.69
16793;BME280;8513;42.662;23.350;2023-11-22T01:16:44;94172.09;;;8.02;68.92
16793;BME280;8513;42.662;23.350;2023-11-22T01:19:10;94160.66;;;7.94;69.31
16793;BME280;8513;42.662;23.350;2023-11-22T01:21:36;94144.34;;;8.17;68.69
16793;BME280;8513;42.662;23.350;2023-11-22T01:24:02;94150.97;;;8.29;68.63
16793;BME280;8513;42.662;23.350;2023-11-22T01:26:27;94155.22;;;8.30;68.17
16793;BME280;8513;42.662;23.350;2023-11-22T01:28:53;94149.97;;;8.30;67.68
16793;BME280;8513;42.662;23.350;2023-11-22T01:31:18;94150.63;;;8.32;67.46
16793;BME280;8513;42.662;23.350;2023-11-22T01:33:46;94163.38;;;8.27;67.70
16793;BME280;8513;42.662;23.350;2023-11-22T01:36:13;94146.16;;;8.16;68.14
16793;BME280;8513;42.662;23.350;2023-11-22T01:38:40;94148.81;;;8.25;67.91
16793;BME280;8513;42.662;23.350;2023-11-22T01:41:06;94134.91;;;8.24;68.14
16793;BME280;8513;42.662;23.350;2023-11-22T01:43:32;94125.75;;;8.36;68.06
16793;BME280;8513;42.662;23.350;2023-11-22T01:45:57;94121.44;;;8.11;69.00
16793;BME280;8513;42.662;23.350;2023-11-22T01:48:23;94119.53;;;8.29;68.52
16793;BME280;8513;42.662;23.350;2023-11-22T01:50:49;94131.00;;;8.36;67.99
16793;BME280;8513;42.662;23.350;2023-11-22T01:53:15;94125.59;;;8.30;68.20
16793;BME280;8513;42.662;23.350;2023-11-22T01:55:44;94133.97;;;8.42;68.04
16793;BME280;8513;42.662;23.350;2023-11-22T01:58:10;94128.50;;;8.18;68.66
16793;BME280;8513;42.662;23.350;2023-11-22T02:00:43;94130.06;;;8.03;69.21
16793;BME280;8513;42.662;23.350;2023-11-22T02:03:10;94122.56;;;8.08;69.21
16793;BME280;8513;42.662;23.350;2023-11-22T02:05:39;94121.78;;;8.16;68.94
16793;BME280;8513;42.662;23.350;2023-11-22T02:08:07;94123.44;;;8.25;68.44
16793;BME280;8513;42.662;23.350;2023-11-22T02:10:33;94123.72;;;8.14;68.96
16793;BME280;8513;42.662;23.350;2023-11-22T02:12:59;94117.72;;;8.22;69.04
16793;BME280;8513;42.662;23.350;2023-11-22T02:15:24;94116.88;;;8.13;69.25
16793;BME280;8513;42.662;23.350;2023-11-22T02:17:49;94122.44;;;8.18;69.05
16793;BME280;8513;42.662;23.350;2023-11-22T02:20:15;94119.16;;;8.16;69.07
16793;BME280;8513;42.662;23.350;2023-11-22T02:22:44;94118.16;;;8.17;68.80
16793;BME280;8513;42.662;23.350;2023-11-22T02:25:11;94111.69;;;8.29;68.37
16793;BME280;8513;42.662;23.350;2023-11-22T02:27:36;94117.41;;;8.33;68.47
16793;BME280;8513;42.662;23.350;2023-11-22T02:30:03;94126.84;;;8.17;68.65
16793;BME280;8513;42.662;23.350;2023-11-22T02:32:31;94117.97;;;8.02;69.53
16793;BME280;8513;42.662;23.350;2023-11-22T02:34:56;94125.16;;;8.00;69.55
16793;BME280;8513;42.662;23.350;2023-11-22T02:37:22;94123.16;;;7.86;70.25
16793;BME280;8513;42.662;23.350;2023-11-22T02:39:57;94125.25;;;7.82;70.43
16793;BME280;8513;42.662;23.350;2023-11-22T02:42:24;94120.31;;;7.79;70.49
16793;BME280;8513;42.662;23.350;2023-11-22T02:44:49;94113.59;;;7.77;70.64
16793;BME280;8513;42.662;23.350;2023-11-22T02:47:15;94118.22;;;7.83;70.57
16793;BME280;8513;42.662;23.350;2023-11-22T02:49:40;94117.28;;;7.92;70.07
16793;BME280;8513;42.662;23.350;2023-11-22T02:52:06;94121.59;;;8.09;69.74
16793;BME280;8513;42.662;23.350;2023-11-22T02:54:31;94126.03;;;8.17;69.39
16793;BME280;8513;42.662;23.350;2023-11-22T02:56:56;94116.88;;;8.13;69.15
16793;BME280;8513;42.662;23.350;2023-11-22T02:59:22;94123.22;;;8.02;69.52
16793;BME280;8513;42.662;23.350;2023-11-22T03:01:47;94119.16;;;8.16;69.14
16793;BME280;8513;42.662;23.350;2023-11-22T03:04:13;94117.34;;;8.08;69.45
16793;BME280;8513;42.662;23.350;2023-11-22T03:06:39;94125.72;;;8.20;68.99
16793;BME280;8513;42.662;23.350;2023-11-22T03:09:05;94124.09;;;8.27;68.45
16793;BME280;8513;42.662;23.350;2023-11-22T03:11:31;94126.56;;;8.21;68.51
16793;BME280;8513;42.662;23.350;2023-11-22T03:13:57;94131.72;;;8.12;69.25
16793;BME280;8513;42.662;23.350;2023-11-22T03:16:22;94127.06;;;8.32;68.69
16793;BME280;8513;42.662;23.350;2023-11-22T03:18:49;94126.56;;;8.21;69.03
16793;BME280;8513;42.662;23.350;2023-11-22T03:21:16;94133.25;;;8.23;68.81
16793;BME280;8513;42.662;23.350;2023-11-22T03:23:42;94134.41;;;8.21;68.81
16793;BME280;8513;42.662;23.350;2023-11-22T03:26:08;94134.72;;;8.26;68.76
16793;BME280;8513;42.662;23.350;2023-11-22T03:28:34;94126.88;;;8.26;68.80
16793;BME280;8513;42.662;23.350;2023-11-22T03:31:00;94144.00;;;8.12;69.24
16793;BME280;8513;42.662;23.350;2023-11-22T03:33:27;94139.81;;;7.85;70.12
16793;BME280;8513;42.662;23.350;2023-11-22T03:35:52;94134.84;;;8.08;69.51
16793;BME280;8513;42.662;23.350;2023-11-22T03:38:17;94132.72;;;8.11;69.29
16793;BME280;8513;42.662;23.350;2023-11-22T03:40:43;94122.13;;;8.21;68.87
16793;BME280;8513;42.662;23.350;2023-11-22T03:43:10;94125.19;;;8.08;69.45
16793;BME280;8513;42.662;23.350;2023-11-22T03:45:35;94113.59;;;8.19;68.80
16793;BME280;8513;42.662;23.350;2023-11-22T03:48:01;94121.78;;;8.16;68.87
16793;BME280;8513;42.662;23.350;2023-11-22T03:50:27;94120.97;;;8.15;68.87
16793;BME280;8513;42.662;23.350;2023-11-22T03:52:52;94117.34;;;8.16;69.16
16793;BME280;8513;42.662;23.350;2023-11-22T03:55:17;94129.19;;;8.29;68.78
16793;BME280;8513;42.662;23.350;2023-11-22T03:57:43;94119.03;;;8.34;68.69
16793;BME280;8513;42.662;23.350;2023-11-22T04:00:09;94110.63;;;8.14;70.11
16793;BME280;8513;42.662;23.350;2023-11-22T04:02:35;94122.75;;;8.23;69.54
16793;BME280;8513;42.662;23.350;2023-11-22T04:05:00;94112.78;;;8.18;69.19
16793;BME280;8513;42.662;23.350;2023-11-22T04:07:26;94122.41;;;8.10;69.60
16793;BME280;8513;42.662;23.350;2023-11-22T04:09:51;94124.59;;;7.88;70.55
16793;BME280;8513;42.662;23.350;2023-11-22T04:12:17;94142.19;;;8.04;70.24
16793;BME280;8513;42.662;23.350;2023-11-22T04:14:42;94140.69;;;8.02;70.57
16793;BME280;8513;42.662;23.350;2023-11-22T04:17:08;94132.22;;;8.08;70.01
16793;BME280;8513;42.662;23.350;2023-11-22T04:19:33;94154.38;;;8.22;69.83
16793;BME280;8513;42.662;23.350;2023-11-22T04:21:58;94150.41;;;8.17;69.70
16793;BME280;8513;42.662;23.350;2023-11-22T04:24:24;94156.75;;;8.07;69.95
16793;BME280;8513;42.662;23.350;2023-11-22T04:26:49;94175.00;;;7.90;70.35
16793;BME280;8513;42.662;23.350;2023-11-22T04:29:15;94170.72;;;7.81;71.07
16793;BME280;8513;42.662;23.350;2023-11-22T04:31:41;94177.03;;;7.97;70.71
16793;BME280;8513;42.662;23.350;2023-11-22T04:34:07;94174.25;;;8.06;70.39
16793;BME280;8513;42.662;23.350;2023-11-22T04:36:32;94179.56;;;7.88;70.89
16793;BME280;8513;42.662;23.350;2023-11-22T04:38:57;94178.66;;;7.71;71.62
16793;BME280;8513;42.662;23.350;2023-11-22T04:41:23;94170.59;;;7.91;71.21
16793;BME280;8513;42.662;23.350;2023-11-22T04:43:50;94176.31;;;7.86;71.30
16793;BME280;8513;42.662;23.350;2023-11-22T04:46:15;94182.03;;;7.90;71.41
16793;BME280;8513;42.662;23.350;2023-11-22T04:48:41;94179.97;;;8.02;71.13
16793;BME280;8513;42.662;23.350;2023-11-22T04:51:10;94190.00;;;8.14;71.24
16793;BME280;8513;42.662;23.350;2023-11-22T04:53:35;94195.25;;;8.14;71.55
16793;BME280;8513;42.662;23.350;2023-11-22T04:56:01;94200.75;;;8.03;71.66
16793;BME280;8513;42.662;23.350;2023-11-22T04:58:31;94212.50;;;7.99;72.08
16793;BME280;8513;42.662;23.350;2023-11-22T05:00:57;94219.59;;;8.07;71.74
16793;BME280;8513;42.662;23.350;2023-11-22T05:03:22;94220.56;;;8.06;71.48
16793;BME280;8513;42.662;23.350;2023-11-22T05:05:49;94232.72;;;8.15;71.53
16793;BME280;8513;42.662;23.350;2023-11-22T05:08:14;94234.53;;;7.88;72.31
16793;BME280;8513;42.662;23.350;2023-11-22T05:10:40;94237.50;;;7.93;72.32
16793;BME280;8513;42.662;23.350;2023-11-22T05:13:05;94230.28;;;7.87;72.40
16793;BME280;8513;42.662;23.350;2023-11-22T05:15:31;94242.78;;;8.02;72.21
16793;BME280;8513;42.662;23.350;2023-11-22T05:17:56;94239.06;;;8.04;72.34
16793;BME280;8513;42.662;23.350;2023-11-22T05:20:21;94241.03;;;7.76;73.84
16793;BME280;8513;42.662;23.350;2023-11-22T05:22:47;94243.88;;;7.91;73.89
16793;BME280;8513;42.662;23.350;2023-11-22T05:25:12;94256.59;;;8.12;73.76
16793;BME280;8513;42.662;23.350;2023-11-22T05:27:38;94256.25;;;8.07;73.73
16793;BME280;8513;42.662;23.350;2023-11-22T05:30:03;94255.34;;;8.16;73.49
16793;BME280;8513;42.662;23.350;2023-11-22T05:32:29;94255.38;;;8.24;73.58
16793;BME280;8513;42.662;23.350;2023-11-22T05:34:56;94266.13;;;8.13;74.17
16793;BME280;8513;42.662;23.350;2023-11-22T05:37:22;94265.19;;;8.22;74.50
16793;BME280;8513;42.662;23.350;2023-11-22T05:39:48;94278.63;;;8.27;74.10
16793;BME280;8513;42.662;23.350;2023-11-22T05:42:13;94267.25;;;8.10;74.31
16793;BME280;8513;42.662;23.350;2023-11-22T05:44:39;94291.41;;;8.04;74.52
16793;BME280;8513;42.662;23.350;2023-11-22T05:47:04;94271.91;;;7.99;74.99
16793;BME280;8513;42.662;23.350;2023-11-22T05:49:30;94279.81;;;8.07;74.89
16793;BME280;8513;42.662;23.350;2023-11-22T05:51:55;94269.69;;;8.12;74.70
16793;BME280;8513;42.662;23.350;2023-11-22T05:54:21;94287.63;;;8.25;74.80
16793;BME280;8513;42.662;23.350;2023-11-22T05:56:46;94291.59;;;8.29;75.08
16793;BME280;8513;42.662;23.350;2023-11-22T05:59:11;94303.78;;;8.20;75.22
16793;BME280;8513;42.662;23.350;2023-11-22T06:01:37;94302.88;;;8.29;75.08
16793;BME280;8513;42.662;23.350;2023-11-22T06:04:02;94297.81;;;8.36;74.72
16793;BME280;8513;42.662;23.350;2023-11-22T06:06:28;94311.03;;;8.26;75.37
16793;BME280;8513;42.662;23.350;2023-11-22T06:08:53;94315.50;;;8.34;74.72
16793;BME280;8513;42.662;23.350;2023-11-22T06:11:19;94311.50;;;8.22;75.00
16793;BME280;8513;42.662;23.350;2023-11-22T06:13:45;94313.31;;;8.21;75.06
16793;BME280;8513;42.662;23.350;2023-11-22T06:16:13;94319.72;;;8.27;75.89
16793;BME280;8513;42.662;23.350;2023-11-22T06:18:39;94326.13;;;8.32;75.26
16793;BME280;8513;42.662;23.350;2023-11-22T06:21:09;94331.72;;;8.37;75.23
16793;BME280;8513;42.662;23.350;2023-11-22T06:23:34;94333.78;;;8.26;75.46
16793;BME280;8513;42.662;23.350;2023-11-22T06:25:59;94342.44;;;8.18;76.26
16793;BME280;8513;42.662;23.350;2023-11-22T06:28:25;94345.28;;;8.07;76.86
16793;BME280;8513;42.662;23.350;2023-11-22T06:30:50;94340.47;;;7.94;77.53
16793;BME280;8513;42.662;23.350;2023-11-22T06:33:16;94353.44;;;8.04;77.31
16793;BME280;8513;42.662;23.350;2023-11-22T06:35:41;94341.16;;;8.04;77.15
16793;BME280;8513;42.662;23.350;2023-11-22T06:38:08;94327.88;;;8.24;77.30
16793;BME280;8513;42.662;23.350;2023-11-22T06:40:34;94329.34;;;8.44;76.30
16793;BME280;8513;42.662;23.350;2023-11-22T06:42:59;94334.75;;;8.43;76.78
16793;BME280;8513;42.662;23.350;2023-11-22T06:45:24;94344.28;;;8.52;76.87
16793;BME280;8513;42.662;23.350;2023-11-22T06:47:50;94354.13;;;8.32;76.04
16793;BME280;8513;42.662;23.350;2023-11-22T06:50:16;94361.25;;;8.39;76.06
16793;BME280;8513;42.662;23.350;2023-11-22T06:52:42;94367.19;;;8.50;75.81
16793;BME280;8513;42.662;23.350;2023-11-22T06:55:09;94371.75;;;8.39;76.78
16793;BME280;8513;42.662;23.350;2023-11-22T06:57:38;94370.50;;;8.34;76.88
16793;BME280;8513;42.662;23.350;2023-11-22T07:00:05;94374.34;;;8.39;76.38
16793;BME280;8513;42.662;23.350;2023-11-22T07:02:34;94363.56;;;8.43;76.01
16793;BME280;8513;42.662;23.350;2023-11-22T07:05:03;94363.16;;;8.37;75.92
16793;BME280;8513;42.662;23.350;2023-11-22T07:07:29;94375.28;;;8.38;76.29
16793;BME280;8513;42.662;23.350;2023-11-22T07:09:55;94376.25;;;8.55;75.79
16793;BME280;8513;42.662;23.350;2023-11-22T07:12:24;94378.75;;;8.65;74.99
16793;BME280;8513;42.662;23.350;2023-11-22T07:14:50;94380.72;;;8.71;75.56
16793;BME280;8513;42.662;23.350;2023-11-22T07:17:16;94385.28;;;8.95;75.89
16793;BME280;8513;42.662;23.350;2023-11-22T07:19:43;94386.38;;;8.84;75.91
16793;BME280;8513;42.662;23.350;2023-11-22T07:22:13;94387.09;;;8.95;75.18
16793;BME280;8513;42.662;23.350;2023-11-22T07:24:45;94394.81;;;8.96;74.83
16793;BME280;8513;42.662;23.350;2023-11-22T07:27:13;94381.53;;;8.98;74.47
16793;BME280;8513;42.662;23.350;2023-11-22T07:29:42;94388.09;;;9.02;74.12
16793;BME280;8513;42.662;23.350;2023-11-22T07:32:08;94379.56;;;9.00;73.98
16793;BME280;8513;42.662;23.350;2023-11-22T07:34:35;94381.69;;;8.96;74.33
16793;BME280;8513;42.662;23.350;2023-11-22T07:37:02;94386.31;;;9.02;73.94
16793;BME280;8513;42.662;23.350;2023-11-22T07:39:28;94391.41;;;9.04;73.50
16793;BME280;8513;42.662;23.350;2023-11-22T07:41:54;94399.72;;;8.99;74.03
16793;BME280;8513;42.662;23.350;2023-11-22T07:44:23;94402.22;;;9.01;74.05
16793;BME280;8513;42.662;23.350;2023-11-22T07:46:49;94394.47;;;8.99;74.55
16793;BME280;8513;42.662;23.350;2023-11-22T07:49:15;94397.75;;;8.93;74.38
16793;BME280;8513;42.662;23.350;2023-11-22T07:51:40;94402.50;;;8.98;74.69
16793;BME280;8513;42.662;23.350;2023-11-22T07:54:07;94401.25;;;9.10;74.43
16793;BME280;8513;42.662;23.350;2023-11-22T07:56:32;94406.16;;;9.05;74.88
16793;BME280;8513;42.662;23.350;2023-11-22T07:59:00;94409.13;;;9.10;74.42
16793;BME280;8513;42.662;23.350;2023-11-22T08:01:26;94412.69;;;9.01;74.85
16793;BME280;8513;42.662;23.350;2023-11-22T08:03:55;94411.03;;;9.00;75.25
16793;BME280;8513;42.662;23.350;2023-11-22T08:06:21;94407.13;;;9.04;74.44
16793;BME280;8513;42.662;23.350;2023-11-22T08:08:46;94417.81;;;9.11;74.22
16793;BME280;8513;42.662;23.350;2023-11-22T08:11:12;94393.84;;;9.05;73.99
16793;BME280;8513;42.662;23.350;2023-11-22T08:13:41;94414.56;;;9.17;74.23
16793;BME280;8513;42.662;23.350;2023-11-22T08:16:11;94400.47;;;8.83;75.41
16793;BME280;8513;42.662;23.350;2023-11-22T08:18:40;94413.78;;;8.90;76.20
16793;BME280;8513;42.662;23.350;2023-11-22T08:21:08;94419.88;;;8.99;76.15
16793;BME280;8513;42.662;23.350;2023-11-22T08:23:34;94411.03;;;9.00;75.84
16793;BME280;8513;42.662;23.350;2023-11-22T08:26:00;94423.72;;;9.13;75.22
16793;BME280;8513;42.662;23.350;2023-11-22T08:28:25;94421.81;;;9.23;75.35
16793;BME280;8513;42.662;23.350;2023-11-22T08:30:51;94421.66;;;9.33;74.94
16793;BME280;8513;42.662;23.350;2023-11-22T08:33:17;94424.31;;;9.41;74.92
16793;BME280;8513;42.662;23.350;2023-11-22T08:35:42;94425.78;;;9.43;74.72
16793;BME280;8513;42.662;23.350;2023-11-22T08:38:08;94429.44;;;9.50;74.12
16793;BME280;8513;42.662;23.350;2023-11-22T08:40:35;94433.19;;;9.48;73.99
16793;BME280;8513;42.662;23.350;2023-11-22T08:43:03;94426.66;;;9.52;73.09
16793;BME280;8513;42.662;23.350;2023-11-22T08:45:29;94435.38;;;9.69;72.91
16793;BME280;8513;42.662;23.350;2023-11-22T08:47:57;94429.66;;;9.65;72.96
16793;BME280;8513;42.662;23.350;2023-11-22T08:50:22;94435.47;;;9.43;73.48
16793;BME280;8513;42.662;23.350;2023-11-22T08:52:49;94435.00;;;9.47;73.90
16793;BME280;8513;42.662;23.350;2023-11-22T08:55:20;94430.25;;;9.51;74.14
16793;BME280;8513;42.662;23.350;2023-11-22T08:57:50;94430.44;;;9.58;73.91
16793;BME280;8513;42.662;23.350;2023-11-22T09:00:18;94415.19;;;9.61;74.14
16793;BME280;8513;42.662;23.350;2023-11-22T09:02:53;94417.50;;;9.72;73.80
16793;BME280;8513;42.662;23.350;2023-11-22T09:05:20;94431.97;;;9.85;72.55
16793;BME280;8513;42.662;23.350;2023-11-22T09:07:47;94439.84;;;9.85;72.23
16793;BME280;8513;42.662;23.350;2023-11-22T09:10:12;94438.69;;;9.79;72.25
16793;BME280;8513;42.662;23.350;2023-11-22T09:12:40;94446.47;;;9.97;72.27
16793;BME280;8513;42.662;23.350;2023-11-22T09:15:07;94444.00;;;10.12;71.44
16793;BME280;8513;42.662;23.350;2023-11-22T09:17:40;94445.09;;;9.85;72.40
16793;BME280;8513;42.662;23.350;2023-11-22T09:20:18;94445.94;;;9.93;71.93
16793;BME280;8513;42.662;23.350;2023-11-22T09:22:50;94463.44;;;9.68;72.76
16793;BME280;8513;42.662;23.350;2023-11-22T09:25:20;94451.44;;;9.58;73.18
16793;BME280;8513;42.662;23.350;2023-11-22T09:27:51;94455.41;;;9.70;73.03
16793;BME280;8513;42.662;23.350;2023-11-22T09:30:19;94461.94;;;9.58;73.91
16793;BME280;8513;42.662;23.350;2023-11-22T09:32:59;94466.66;;;9.54;75.14
16793;BME280;8513;42.662;23.350;2023-11-22T09:35:24;94463.75;;;9.57;75.26
16793;BME280;8513;42.662;23.350;2023-11-22T09:37:51;94463.44;;;9.68;75.15
16793;BME280;8513;42.662;23.350;2023-11-22T09:40:19;94465.44;;;9.75;75.59
16793;BME280;8513;42.662;23.350;2023-11-22T09:42:47;94469.56;;;9.85;74.77
16793;BME280;8513;42.662;23.350;2023-11-22T09:45:17;94480.88;;;9.86;74.67
16793;BME280;8513;42.662;23.350;2023-11-22T09:47:44;94470.03;;;9.89;74.30
16793;BME280;8513;42.662;23.350;2023-11-22T09:50:19;94452.31;;;9.83;74.54
16793;BME280;8513;42.662;23.350;2023-11-22T09:52:50;94462.22;;;9.97;73.88
16793;BME280;8513;42.662;23.350;2023-11-22T09:55:20;94457.25;;;9.94;74.33
16793;BME280;8513;42.662;23.350;2023-11-22T09:57:48;94457.78;;;9.98;73.94
16793;BME280;8513;42.662;23.350;2023-11-22T10:00:14;94451.38;;;10.00;73.80
16793;BME280;8513;42.662;23.350;2023-11-22T10:02:44;94455.31;;;10.12;73.66
16793;BME280;8513;42.662;23.350;2023-11-22T10:05:09;94454.97;;;9.99;74.50
16793;BME280;8513;42.662;23.350;2023-11-22T10:07:36;94464.66;;;10.07;73.83
16793;BME280;8513;42.662;23.350;2023-11-22T10:10:03;94462.38;;;10.04;73.98
16793;BME280;8513;42.662;23.350;2023-11-22T10:12:31;94453.34;;;10.06;73.71
16793;BME280;8513;42.662;23.350;2023-11-22T10:15:13;94449.59;;;10.17;73.54
16793;BME280;8513;42.662;23.350;2023-11-22T10:17:39;94448.25;;;10.13;73.44
16793;BME280;8513;42.662;23.350;2023-11-22T10:20:05;94451.53;;;10.15;73.40
16793;BME280;8513;42.662;23.350;2023-11-22T10:22:44;94448.31;;;10.37;72.90
16793;BME280;8513;42.662;23.350;2023-11-22T10:25:16;94452.06;;;10.27;73.14
16793;BME280;8513;42.662;23.350;2023-11-22T10:27:47;94461.28;;;10.31;72.86
16793;BME280;8513;42.662;23.350;2023-11-22T10:30:13;94442.53;;;10.18;73.51
16793;BME280;8513;42.662;23.350;2023-11-22T10:32:41;94449.47;;;10.35;72.48
16793;BME280;8513;42.662;23.350;2023-11-22T10:35:07;94445.19;;;10.34;72.74
16793;BME280;8513;42.662;23.350;2023-11-22T10:37:35;94448.47;;;10.44;72.86
16793;BME280;8513;42.662;23.350;2023-11-22T10:40:01;94459.50;;;10.48;72.96
16793;BME280;8513;42.662;23.350;2023-11-22T10:42:31;94460.47;;;10.30;73.02
16793;BME280;8513;42.662;23.350;2023-11-22T10:44:56;94456.69;;;10.57;72.67
16793;BME280;8513;42.662;23.350;2023-11-22T10:47:28;94456.34;;;10.69;72.44
16793;BME280;8513;42.662;23.350;2023-11-22T10:49:55;94467.38;;;10.56;72.48
16793;BME280;8513;42.662;23.350;2023-11-22T10:52:22;94454.06;;;10.57;72.23
16793;BME280;8513;42.662;23.350;2023-11-22T10:54:58;94457.81;;;10.63;72.48
16793;BME280;8513;42.662;23.350;2023-11-22T10:57:31;94457.66;;;10.65;72.82
16793;BME280;8513;42.662;23.350;2023-11-22T11:00:00;94463.41;;;10.60;73.25
16793;BME280;8513;42.662;23.350;2023-11-22T11:02:39;94451.59;;;10.56;73.52
16793;BME280;8513;42.662;23.350;2023-11-22T11:05:12;94448.97;;;10.64;73.90
16793;BME280;8513;42.662;23.350;2023-11-22T11:07:47;94450.94;;;10.62;74.29
16793;BME280;8513;42.662;23.350;2023-11-22T11:10:13;94450.09;;;10.78;73.54
16793;BME280;8513;42.662;23.350;2023-11-22T11:12:39;94454.53;;;10.61;73.70
16793;BME280;8513;42.662;23.350;2023-11-22T11:15:06;94466.38;;;10.65;73.55
16793;BME280;8513;42.662;23.350;2023-11-22T11:17:33;94472.78;;;10.46;73.60
16793;BME280;8513;42.662;23.350;2023-11-22T11:20:00;94459.78;;;10.36;74.16
16793;BME280;8513;42.662;23.350;2023-11-22T11:22:25;94459.78;;;10.45;74.33
16793;BME280;8513;42.662;23.350;2023-11-22T11:25:00;94448.47;;;10.52;73.86
16793;BME280;8513;42.662;23.350;2023-11-22T11:27:28;94449.59;;;10.58;73.73
16793;BME280;8513;42.662;23.350;2023-11-22T11:29:54;94453.38;;;10.64;74.12
16793;BME280;8513;42.662;23.350;2023-11-22T11:32:32;94456.84;;;10.72;74.18
16793;BME280;8513;42.662;23.350;2023-11-22T11:34:58;94456.19;;;10.70;74.11
16793;BME280;8513;42.662;23.350;2023-11-22T11:37:29;94456.50;;;10.75;73.75
16793;BME280;8513;42.662;23.350;2023-11-22T11:39:55;94452.72;;;10.78;73.08
16793;BME280;8513;42.662;23.350;2023-11-22T11:42:21;94451.88;;;10.86;73.43
16793;BME280;8513;42.662;23.350;2023-11-22T11:45:06;94457.16;;;10.86;73.95
16793;BME280;8513;42.662;23.350;2023-11-22T11:47:33;94456.31;;;10.93;73.67
16793;BME280;8513;42.662;23.350;2023-11-22T11:49:59;94455.00;;;10.89;72.41
16793;BME280;8513;42.662;23.350;2023-11-22T11:52:26;94461.56;;;10.85;72.57
16793;BME280;8513;42.662;23.350;2023-11-22T11:54:51;94459.28;;;10.82;72.38
16793;BME280;8513;42.662;23.350;2023-11-22T11:57:16;94461.91;;;10.82;72.75
16793;BME280;8513;42.662;23.350;2023-11-22T11:59:42;94464.84;;;10.87;72.50
16793;BME280;8513;42.662;23.350;2023-11-22T12:02:08;94463.88;;;10.88;72.60
16793;BME280;8513;42.662;23.350;2023-11-22T12:04:33;94458.66;;;10.80;72.93
16793;BME280;8513;42.662;23.350;2023-11-22T12:06:59;94468.97;;;10.81;73.16
16793;BME280;8513;42.662;23.350;2023-11-22T12:09:25;94467.34;;;10.80;73.18
16793;BME280;8513;42.662;23.350;2023-11-22T12:11:52;94472.09;;;10.85;73.28
16793;BME280;8513;42.662;23.350;2023-11-22T12:14:22;94478.53;;;10.91;72.97
16793;BME280;8513;42.662;23.350;2023-11-22T12:16:50;94491.00;;;10.89;73.75
16793;BME280;8513;42.662;23.350;2023-11-22T12:21:48;94492.81;;;10.96;72.90
16793;BME280;8513;42.662;23.350;2023-11-22T12:24:14;94492.81;;;10.96;73.11
16793;BME280;8513;42.662;23.350;2023-11-22T12:26:46;94489.50;;;11.02;72.98
16793;BME280;8513;42.662;23.350;2023-11-22T12:29:15;94485.06;;;10.95;72.81
16793;BME280;8513;42.662;23.350;2023-11-22T12:31:49;94486.41;;;10.99;72.17
16793;BME280;8513;42.662;23.350;2023-11-22T12:34:22;94483.88;;;11.14;71.65
16793;BME280;8513;42.662;23.350;2023-11-22T12:36:48;94491.63;;;11.15;71.15
16793;BME280;8513;42.662;23.350;2023-11-22T12:39:28;94489.81;;;11.16;71.52
16793;BME280;8513;42.662;23.350;2023-11-22T12:41:54;94484.06;;;11.12;71.28
16793;BME280;8513;42.662;23.350;2023-11-22T12:44:21;94488.66;;;11.18;72.35
16793;BME280;8513;42.662;23.350;2023-11-22T12:49:24;94511.66;;;11.24;71.78
16793;BME280;8513;42.662;23.350;2023-11-22T12:51:57;94516.91;;;11.33;70.76
16793;BME280;8513;42.662;23.350;2023-11-22T12:54:22;94514.28;;;11.24;71.36
16793;BME280;8513;42.662;23.350;2023-11-22T12:56:52;94520.34;;;11.33;70.91
16793;BME280;8513;42.662;23.350;2023-11-22T12:59:24;94518.25;;;11.29;71.38
16793;BME280;8513;42.662;23.350;2023-11-22T13:01:50;94513.34;;;11.17;71.25
16793;BME280;8513;42.662;23.350;2023-11-22T13:04:17;94523.53;;;11.20;71.75
16793;BME280;8513;42.662;23.350;2023-11-22T13:06:43;94531.22;;;11.22;71.07
16793;BME280;8513;42.662;23.350;2023-11-22T13:09:09;94535.53;;;11.15;71.17
16793;BME280;8513;42.662;23.350;2023-11-22T13:11:43;94536.84;;;11.19;71.43